createdAt,value
2022-10-12T00:01:29.983Z,100242.31
2022-10-12T00:04:17.782Z,100242.22
2022-10-12T00:07:05.025Z,100248.09
2022-10-12T00:09:52.415Z,100235.69
2022-10-12T00:12:40.068Z,100233.53
2022-10-12T00:15:27.900Z,100237.75
2022-10-12T00:18:16.745Z,100240.72
2022-10-12T00:21:05.364Z,100240.25
2022-10-12T00:23:53.408Z,100243.69
2022-10-12T00:26:40.728Z,100241.63
2022-10-12T00:29:28.012Z,100246.63
2022-10-12T00:32:15.312Z,100242.88
2022-10-12T00:35:04.495Z,100247.28
2022-10-12T00:37:55.459Z,100246.28
2022-10-12T00:40:43.113Z,100245.25
2022-10-12T00:43:34.310Z,100241.63
2022-10-12T00:46:29.297Z,100238.47
2022-10-12T00:49:21.604Z,100244.34
2022-10-12T00:52:14.488Z,100241.78
2022-10-12T00:55:02.566Z,100237.59
2022-10-12T00:57:52.532Z,100241.78
2022-10-12T01:00:40.838Z,100239.88
2022-10-12T01:03:28.443Z,100239.06
2022-10-12T01:06:16.270Z,100241.66
2022-10-12T01:09:05.882Z,100243.47
2022-10-12T01:11:53.435Z,100240.31
2022-10-12T01:14:40.611Z,100244.50
2022-10-12T01:17:38.526Z,100240.63
2022-10-12T01:20:58.639Z,100242.34
2022-10-12T01:24:36.264Z,100238.81
2022-10-12T01:27:38.348Z,100233.56
2022-10-12T01:30:29.277Z,100235.59
2022-10-12T01:33:26.694Z,100235.06
2022-10-12T01:36:22.929Z,100243.66
2022-10-12T01:39:18.692Z,100233.91
2022-10-12T01:42:11.453Z,100222.28
2022-10-12T01:45:07.872Z,100220.94
2022-10-12T01:47:57.061Z,100225.81
2022-10-12T01:50:51.429Z,100220.00
2022-10-12T01:53:46.050Z,100226.25
2022-10-12T01:56:43.848Z,100228.50
2022-10-12T01:59:44.289Z,100222.50
2022-10-12T02:02:43.426Z,100216.25
2022-10-12T02:05:38.247Z,100214.44
2022-10-12T02:08:29.243Z,100225.44
2022-10-12T02:11:20.446Z,100223.41
2022-10-12T02:14:13.818Z,100214.78
2022-10-12T02:17:04.640Z,100209.56
2022-10-12T02:19:57.365Z,100206.41
2022-10-12T02:22:50.213Z,100203.78
2022-10-12T02:25:37.723Z,100195.38
2022-10-12T02:28:29.244Z,100199.78
2022-10-12T02:31:26.001Z,100192.97
2022-10-12T02:34:18.345Z,100194.78
2022-10-12T02:37:10.656Z,100193.34
2022-10-12T02:40:06.378Z,100189.25
2022-10-12T02:43:10.306Z,100189.38
2022-10-12T02:46:01.307Z,100193.56
2022-10-12T02:48:51.126Z,100185.75
2022-10-12T02:51:40.985Z,100177.91
2022-10-12T02:54:28.596Z,100181.09
2022-10-12T02:57:17.307Z,100177.47
2022-10-12T03:00:05.882Z,100177.47
2022-10-12T03:02:53.439Z,100176.47
2022-10-12T03:05:40.919Z,100167.84
2022-10-12T03:08:28.357Z,100176.47
2022-10-12T03:11:15.777Z,100168.63
2022-10-12T03:14:04.829Z,100174.63
2022-10-12T03:16:52.194Z,100173.63
2022-10-12T03:19:39.942Z,100177.47
2022-10-12T03:22:27.652Z,100174.84
2022-10-12T03:25:15.258Z,100170.44
2022-10-12T03:28:02.793Z,100168.06
2022-10-12T03:30:51.428Z,100166.69
2022-10-12T03:33:38.989Z,100166.31
2022-10-12T03:36:26.200Z,100163.94
2022-10-12T03:39:14.078Z,100170.78
2022-10-12T03:42:01.374Z,100172.59
2022-10-12T03:44:48.627Z,100168.38
2022-10-12T03:47:38.226Z,100172.78
2022-10-12T03:50:25.885Z,100169.28
2022-10-12T03:53:13.339Z,100171.28
2022-10-12T03:59:41.743Z,100175.75
2022-10-12T04:04:18.930Z,100179.00
2022-10-12T04:08:26.855Z,100176.63
2022-10-12T04:20:47.046Z,100185.88
2022-10-12T04:24:30.868Z,100185.28
2022-10-12T04:32:25.819Z,100185.00
2022-10-12T04:35:39.886Z,100193.44
2022-10-12T04:39:51.679Z,100190.66
2022-10-12T04:42:57.770Z,100193.28
2022-10-12T04:46:19.664Z,100183.53
2022-10-12T04:53:49.632Z,100188.53
2022-10-12T05:04:06.613Z,100191.56
2022-10-12T05:08:51.793Z,100189.25
2022-10-12T05:12:11.258Z,100192.06
2022-10-12T05:15:23.625Z,100191.28
2022-10-12T05:22:16.369Z,100192.00
2022-10-12T05:26:24.873Z,100186.78
2022-10-12T05:32:57.243Z,100191.28
2022-10-12T05:36:13.006Z,100184.03
2022-10-12T05:46:16.990Z,100184.31
2022-10-12T05:49:04.880Z,100189.94
2022-10-12T05:52:07.460Z,100186.91
2022-10-12T06:02:37.951Z,100199.94
2022-10-12T06:05:36.484Z,100186.72
2022-10-12T06:11:38.332Z,100191.94
2022-10-12T06:14:27.281Z,100185.88
2022-10-12T06:16:59.944Z,100191.94
2022-10-12T06:20:02.207Z,100185.47
2022-10-12T06:27:24.367Z,100179.25
2022-10-12T06:30:38.583Z,100179.63
2022-10-12T06:34:20.134Z,100187.78
2022-10-12T06:37:02.353Z,100192.00
2022-10-12T06:39:51.992Z,100187.94
2022-10-12T06:42:24.962Z,100192.28
2022-10-12T06:44:56.076Z,100193.44
2022-10-12T06:47:29.804Z,100195.38
2022-10-12T06:49:59.248Z,100199.34
2022-10-12T06:52:29.111Z,100199.78
2022-10-12T06:54:58.539Z,100199.78
2022-10-12T06:57:28.207Z,100198.22
2022-10-12T06:59:58.253Z,100205.81
2022-10-12T07:02:29.796Z,100194.34
2022-10-12T07:05:00.190Z,100193.09
2022-10-12T07:07:32.798Z,100197.66
2022-10-12T07:10:02.934Z,100198.03
2022-10-12T07:12:32.427Z,100198.75
2022-10-12T07:15:02.094Z,100194.66
2022-10-12T07:17:33.468Z,100197.41
2022-10-12T07:20:03.251Z,100195.69
2022-10-12T07:22:32.833Z,100202.88
2022-10-12T07:25:02.517Z,100201.06
2022-10-12T07:27:32.092Z,100200.84
2022-10-12T07:30:10.052Z,100202.44
2022-10-12T07:32:44.672Z,100208.03
2022-10-12T07:35:14.507Z,100215.97
2022-10-12T07:37:44.068Z,100214.28
2022-10-12T07:40:13.595Z,100210.19
2022-10-12T07:43:11.891Z,100214.53
2022-10-12T07:45:37.333Z,100215.25
2022-10-12T07:48:09.069Z,100212.34
2022-10-12T07:50:39.018Z,100201.09
2022-10-12T07:53:08.759Z,100201.34
2022-10-12T07:55:38.677Z,100198.50
2022-10-12T07:58:08.971Z,100193.59
2022-10-12T08:00:39.551Z,100199.63
2022-10-12T08:03:11.517Z,100201.97
2022-10-12T08:05:41.461Z,100200.75
2022-10-12T08:11:19.884Z,100196.78
2022-10-12T08:17:53.553Z,100199.13
2022-10-12T08:21:09.205Z,100206.34
2022-10-12T08:23:44.723Z,100199.59
2022-10-12T08:26:23.892Z,100197.75
2022-10-12T08:28:57.184Z,100203.78
2022-10-12T08:31:55.083Z,100199.19
2022-10-12T08:34:30.929Z,100193.66
2022-10-12T08:37:11.172Z,100192.88
2022-10-12T08:39:50.146Z,100186.28
2022-10-12T08:42:54.061Z,100181.31
2022-10-12T08:45:48.762Z,100184.66
2022-10-12T08:48:46.080Z,100183.78
2022-10-12T08:51:50.989Z,100176.03
2022-10-12T08:54:35.043Z,100171.97
2022-10-12T09:05:10.738Z,100173.47
2022-10-12T09:08:07.037Z,100176.78
2022-10-12T09:10:48.984Z,100175.81
2022-10-12T09:13:39.379Z,100180.59
2022-10-12T09:16:22.320Z,100179.59
2022-10-12T09:18:55.126Z,100170.66
2022-10-12T09:21:27.873Z,100170.44
2022-10-12T09:23:58.364Z,100176.31
2022-10-12T09:26:40.026Z,100187.91
2022-10-12T09:29:26.172Z,100178.72
2022-10-12T09:32:21.408Z,100182.94
2022-10-12T09:34:51.016Z,100180.28
2022-10-12T09:37:23.022Z,100173.34
2022-10-12T09:39:52.572Z,100175.47
2022-10-12T09:42:23.920Z,100175.13
2022-10-12T09:44:59.815Z,100183.22
2022-10-12T09:47:31.392Z,100177.09
2022-10-12T09:50:02.411Z,100172.53
2022-10-12T09:52:42.353Z,100172.41
2022-10-12T09:58:02.179Z,100175.47
2022-10-12T10:00:33.513Z,100164.34
2022-10-12T10:03:03.895Z,100165.38
2022-10-12T10:05:35.730Z,100164.28
2022-10-12T10:08:20.454Z,100165.56
2022-10-12T10:10:51.560Z,100168.00
2022-10-12T10:13:25.147Z,100173.09
2022-10-12T10:16:05.409Z,100175.63
2022-10-12T10:18:37.428Z,100179.69
2022-10-12T10:21:09.937Z,100183.72
2022-10-12T10:23:45.009Z,100176.41
2022-10-12T10:28:59.967Z,100179.13
2022-10-12T10:31:29.744Z,100192.41
2022-10-12T10:34:22.436Z,100186.63
2022-10-12T10:36:54.249Z,100180.31
2022-10-12T10:39:27.628Z,100184.00
2022-10-12T10:41:56.927Z,100187.13
2022-10-12T10:44:31.720Z,100186.38
2022-10-12T10:47:04.920Z,100192.41
2022-10-12T10:49:42.360Z,100187.66
2022-10-12T10:52:24.220Z,100183.97
2022-10-12T10:55:20.441Z,100175.78
2022-10-12T10:58:00.874Z,100181.06
2022-10-12T11:00:40.439Z,100172.88
2022-10-12T11:03:18.269Z,100170.75
2022-10-12T11:05:53.289Z,100169.19
2022-10-12T11:08:26.522Z,100169.19
2022-10-12T11:11:01.500Z,100164.44
2022-10-12T11:13:35.779Z,100167.59
2022-10-12T11:16:18.232Z,100161.00
2022-10-12T11:18:53.347Z,100161.81
2022-10-12T11:21:27.896Z,100156.25
2022-10-12T11:24:06.517Z,100150.16
2022-10-12T11:26:40.377Z,100160.16
2022-10-12T11:29:15.369Z,100159.13
2022-10-12T11:31:54.814Z,100145.94
2022-10-12T11:34:26.133Z,100141.72
2022-10-12T11:37:21.445Z,100148.56
2022-10-12T11:39:51.817Z,100142.53
2022-10-12T11:42:34.069Z,100138.81
2022-10-12T11:45:07.470Z,100143.28
2022-10-12T11:47:44.114Z,100137.78
2022-10-12T11:50:28.104Z,100133.06
2022-10-12T11:52:59.461Z,100128.84
2022-10-12T11:55:52.307Z,100125.16
2022-10-12T11:58:42.283Z,100130.72
2022-10-12T12:01:48.857Z,100119.91
2022-10-12T12:04:47.747Z,100115.16
2022-10-12T12:07:45.460Z,100114.91
2022-10-12T12:10:52.174Z,100117.53
2022-10-12T12:13:27.281Z,100110.69
2022-10-12T12:16:33.806Z,100104.34
2022-10-12T12:19:19.509Z,100104.88
2022-10-12T12:22:43.308Z,100100.94
2022-10-12T12:25:39.642Z,100098.53
2022-10-12T12:28:21.466Z,100098.03
2022-10-12T12:30:59.493Z,100094.31
2022-10-12T12:33:32.654Z,100086.69
2022-10-12T12:36:04.882Z,100082.75
2022-10-12T12:38:37.105Z,100089.59
2022-10-12T12:41:11.610Z,100077.72
2022-10-12T12:44:06.059Z,100079.56
2022-10-12T12:50:32.825Z,100064.25
2022-10-12T12:53:07.853Z,100064.25
2022-10-12T12:56:03.455Z,100052.09
2022-10-12T12:59:01.197Z,100051.84
2022-10-12T13:02:03.345Z,100058.19
2022-10-12T13:04:53.601Z,100052.66
2022-10-12T13:08:03.083Z,100058.16
2022-10-12T13:10:50.617Z,100058.94
2022-10-12T13:13:51.359Z,100052.38
2022-10-12T13:19:47.091Z,100055.84
2022-10-12T13:22:23.658Z,100058.47
2022-10-12T13:25:00.244Z,100054.00
2022-10-12T13:27:35.737Z,100060.81
2022-10-12T13:30:17.045Z,100060.03
2022-10-12T13:32:52.757Z,100056.84
2022-10-12T13:35:33.472Z,100059.47
2022-10-12T13:38:05.980Z,100052.38
2022-10-12T13:40:40.415Z,100051.59
2022-10-12T13:43:27.381Z,100050.00
2022-10-12T13:45:56.939Z,100051.03
2022-10-12T13:48:53.829Z,100047.63
2022-10-12T13:51:28.576Z,100059.44
2022-10-12T13:53:58.566Z,100061.56
2022-10-12T13:56:30.271Z,100048.94
2022-10-12T13:59:06.716Z,100056.03
2022-10-12T14:01:51.082Z,100058.13
2022-10-12T14:04:20.346Z,100059.97
2022-10-12T14:06:57.724Z,100052.03
2022-10-12T14:09:28.298Z,100054.16
2022-10-12T14:11:57.986Z,100059.69
2022-10-12T14:14:33.760Z,100054.91
2022-10-12T14:17:03.287Z,100060.97
2022-10-12T14:19:45.038Z,100060.16
2022-10-12T14:22:20.233Z,100058.25
2022-10-12T14:24:49.759Z,100060.38
2022-10-12T14:27:29.835Z,100062.47
2022-10-12T14:30:08.878Z,100049.81
2022-10-12T14:32:44.261Z,100064.59
2022-10-12T14:35:22.957Z,100058.25
2022-10-12T14:37:56.012Z,100057.72
2022-10-12T14:40:34.192Z,100057.41
2022-10-12T14:43:08.128Z,100050.84
2022-10-12T14:45:38.624Z,100051.63
2022-10-12T14:48:15.671Z,100044.81
2022-10-12T14:50:45.493Z,100040.31
2022-10-12T14:53:16.358Z,100044.50
2022-10-12T14:55:46.911Z,100045.56
2022-10-12T14:58:18.885Z,100046.38
2022-10-12T15:00:49.478Z,100043.50
2022-10-12T15:03:20.150Z,100033.75
2022-10-12T15:05:49.215Z,100032.16
2022-10-12T15:08:18.300Z,100031.41
2022-10-12T15:10:51.253Z,100034.03
2022-10-12T15:13:20.365Z,100031.94
2022-10-12T15:15:52.138Z,100032.19
2022-10-12T15:18:21.293Z,100031.94
2022-10-12T15:20:50.486Z,100039.28
2022-10-12T15:23:19.779Z,100044.56
2022-10-12T15:25:56.580Z,100042.72
2022-10-12T15:28:27.860Z,100037.72
2022-10-12T15:33:48.716Z,100039.28
2022-10-12T15:36:17.763Z,100037.97
2022-10-12T15:38:46.869Z,100029.03
2022-10-12T15:41:19.462Z,100029.81
2022-10-12T15:43:48.756Z,100028.75
2022-10-12T15:46:19.369Z,100025.09
2022-10-12T15:48:48.500Z,100019.28
2022-10-12T15:51:22.818Z,100011.66
2022-10-12T15:53:52.604Z,100013.78
2022-10-12T15:56:23.200Z,100016.16
2022-10-12T15:58:52.649Z,100013.78
2022-10-12T16:01:23.124Z,100022.94
2022-10-12T16:03:52.415Z,100028.47
2022-10-12T16:06:21.657Z,100027.69
2022-10-12T16:08:50.671Z,100030.34
2022-10-12T16:11:20.241Z,100025.84
2022-10-12T16:13:56.298Z,100018.19
2022-10-12T16:16:27.255Z,100012.94
2022-10-12T16:18:56.261Z,100015.56
2022-10-12T16:21:25.340Z,100019.25
2022-10-12T16:23:54.410Z,100015.06
2022-10-12T16:26:23.408Z,100016.88
2022-10-12T16:28:52.675Z,100025.84
2022-10-12T16:31:21.773Z,100028.72
2022-10-12T16:33:52.140Z,100027.94
2022-10-12T16:36:21.098Z,100021.09
2022-10-12T16:38:50.127Z,100018.72
2022-10-12T16:41:19.381Z,100015.56
2022-10-12T16:43:48.702Z,100017.66
2022-10-12T16:46:18.795Z,100014.47
2022-10-12T16:48:47.829Z,100020.78
2022-10-12T16:51:18.183Z,100018.69
2022-10-12T16:53:47.215Z,100015.53
2022-10-12T16:56:16.220Z,100018.41
2022-10-12T16:58:45.236Z,100018.66
2022-10-12T17:01:15.173Z,100027.59
2022-10-12T17:03:44.236Z,100028.91
2022-10-12T17:06:13.209Z,100022.06
2022-10-12T17:08:43.573Z,100020.75
2022-10-12T17:11:16.977Z,100023.63
2022-10-12T17:13:49.096Z,100021.25
2022-10-12T17:16:37.017Z,100027.78
2022-10-12T17:19:06.050Z,100031.22
2022-10-12T17:21:35.266Z,100032.50
2022-10-12T17:24:06.431Z,100031.16
2022-10-12T17:26:40.155Z,100029.03
2022-10-12T17:29:12.578Z,100031.16
2022-10-12T17:31:42.305Z,100026.41
2022-10-12T17:34:19.357Z,100028.47
2022-10-12T17:36:49.297Z,100029.75
2022-10-12T17:39:20.597Z,100031.84
2022-10-12T17:41:50.175Z,100032.38
2022-10-12T17:44:19.259Z,100035.75
2022-10-12T17:46:49.865Z,100035.47
2022-10-12T17:49:24.909Z,100044.66
2022-10-12T17:51:54.433Z,100038.31
2022-10-12T17:54:26.762Z,100041.47
2022-10-12T17:56:57.355Z,100039.34
2022-10-12T17:59:26.828Z,100043.00
2022-10-12T18:01:56.308Z,100048.78
2022-10-12T18:04:25.345Z,100046.63
2022-10-12T18:06:54.326Z,100035.06
2022-10-12T18:09:24.753Z,100046.06
2022-10-12T18:11:54.443Z,100047.38
2022-10-12T18:14:23.494Z,100047.06
2022-10-12T18:16:52.503Z,100052.31
2022-10-12T18:19:21.597Z,100052.81
2022-10-12T18:21:50.616Z,100057.00
2022-10-12T18:24:23.231Z,100050.16
2022-10-12T18:26:53.598Z,100049.09
2022-10-12T18:29:23.964Z,100051.16
2022-10-12T18:31:53.500Z,100051.66
2022-10-12T18:34:22.571Z,100050.34
2022-10-12T18:36:52.750Z,100051.63
2022-10-12T18:39:21.863Z,100052.91
2022-10-12T18:41:53.052Z,100056.81
2022-10-12T18:44:22.242Z,100051.81
2022-10-12T18:46:51.351Z,100062.56
2022-10-12T18:49:20.324Z,100064.41
2022-10-12T18:51:51.334Z,100066.22
2022-10-12T18:54:20.356Z,100057.25
2022-10-12T18:56:49.455Z,100061.19
2022-10-12T18:59:20.377Z,100054.56
2022-10-12T19:01:49.768Z,100057.19
2022-10-12T19:04:19.005Z,100056.41
2022-10-12T19:06:48.068Z,100055.63
2022-10-12T19:09:17.085Z,100051.66
2022-10-12T19:11:46.133Z,100052.66
2022-10-12T19:14:16.660Z,100051.81
2022-10-12T19:16:47.976Z,100052.78
2022-10-12T19:19:21.492Z,100050.66
2022-10-12T19:21:51.783Z,100056.41
2022-10-12T19:24:21.428Z,100052.19
2022-10-12T19:26:50.535Z,100049.81
2022-10-12T19:29:19.527Z,100049.28
2022-10-12T19:31:52.146Z,100051.34
2022-10-12T19:34:23.673Z,100044.22
2022-10-12T19:36:52.957Z,100037.88
2022-10-12T19:39:24.306Z,100044.91
2022-10-12T19:41:54.015Z,100042.22
2022-10-12T19:44:23.161Z,100046.69
2022-10-12T19:46:53.687Z,100046.44
2022-10-12T19:49:22.717Z,100046.69
2022-10-12T19:51:51.721Z,100047.19
2022-10-12T19:54:20.923Z,100055.53
2022-10-12T19:56:49.920Z,100041.34
2022-10-12T19:59:18.924Z,100050.75
2022-10-12T20:01:48.455Z,100045.72
2022-10-12T20:04:37.160Z,100046.44
2022-10-12T20:07:24.793Z,100050.81
2022-10-12T20:10:12.348Z,100056.00
2022-10-12T20:12:59.600Z,100053.31
2022-10-12T20:15:47.145Z,100053.81
2022-10-12T20:18:35.267Z,100066.09
2022-10-12T20:21:25.529Z,100055.56
2022-10-12T20:24:13.098Z,100065.56
2022-10-12T20:27:00.727Z,100067.97
2022-10-12T20:29:48.075Z,100066.91
2022-10-12T20:32:35.994Z,100065.88
2022-10-12T20:35:23.308Z,100055.38
2022-10-12T20:38:11.934Z,100049.34
2022-10-12T20:41:05.532Z,100047.50
2022-10-12T20:43:57.244Z,100051.41
2022-10-12T20:46:45.721Z,100054.53
2022-10-12T20:49:33.155Z,100051.84
2022-10-12T20:52:21.114Z,100049.72
2022-10-12T20:55:11.567Z,100051.78
2022-10-12T20:57:58.865Z,100045.97
2022-10-12T21:00:46.320Z,100032.31
2022-10-12T21:03:33.946Z,100030.47
2022-10-12T21:06:23.429Z,100042.81
2022-10-12T21:09:15.236Z,100034.94
2022-10-12T21:12:04.285Z,100038.06
2022-10-12T21:14:51.964Z,100045.34
2022-10-12T21:17:39.573Z,100050.81
2022-10-12T21:20:26.812Z,100046.34
2022-10-12T21:23:14.214Z,100047.78
2022-10-12T21:26:10.300Z,100049.78
2022-10-12T21:28:59.500Z,100051.59
2022-10-12T21:31:47.318Z,100047.16
2022-10-12T21:34:34.875Z,100043.69
2022-10-12T21:37:22.239Z,100041.53
2022-10-12T21:40:11.436Z,100048.81
2022-10-12T21:42:58.797Z,100042.81
2022-10-12T21:45:47.445Z,100038.59
2022-10-12T21:48:35.635Z,100033.34
2022-10-12T21:51:25.113Z,100033.34
2022-10-12T21:54:12.472Z,100035.19
2022-10-12T21:56:59.821Z,100034.16
2022-10-12T21:59:51.816Z,100035.97
2022-10-12T22:02:40.785Z,100034.38
2022-10-12T22:05:28.328Z,100029.63
2022-10-12T22:08:15.845Z,100024.84
2022-10-12T22:11:07.257Z,100022.69
2022-10-12T22:14:00.203Z,100027.72
2022-10-12T22:16:47.924Z,100030.53
2022-10-12T22:19:36.703Z,100039.44
2022-10-12T22:22:23.944Z,100044.38
2022-10-12T22:25:11.481Z,100040.38
2022-10-12T22:27:59.034Z,100041.28
2022-10-12T22:30:49.917Z,100040.63
2022-10-12T22:33:37.609Z,100039.53
2022-10-12T22:36:26.707Z,100045.25
2022-10-12T22:39:14.306Z,100044.66
2022-10-12T22:42:05.307Z,100039.44
2022-10-12T22:44:52.686Z,100042.63
2022-10-12T22:47:39.924Z,100042.63
2022-10-12T22:50:27.495Z,100035.81
2022-10-12T22:53:18.584Z,100042.84
2022-10-12T22:56:09.828Z,100039.78
2022-10-12T22:58:59.577Z,100046.09
2022-10-12T23:01:47.248Z,100035.41
2022-10-12T23:04:34.821Z,100033.59
2022-10-12T23:07:22.341Z,100035.16
2022-10-12T23:10:11.671Z,100041.97
2022-10-12T23:12:59.094Z,100045.41
2022-10-12T23:15:46.337Z,100046.44
2022-10-12T23:18:34.377Z,100041.75
2022-10-12T23:21:21.609Z,100051.97
2022-10-12T23:24:10.383Z,100043.09
2022-10-12T23:26:58.920Z,100052.78
2022-10-12T23:29:48.012Z,100046.97
2022-10-12T23:32:36.090Z,100049.59
2022-10-12T23:35:23.240Z,100044.84
2022-10-12T23:38:10.424Z,100041.69
2022-10-12T23:40:58.044Z,100037.44
2022-10-12T23:43:46.876Z,100040.06
2022-10-12T23:46:34.549Z,100036.91
2022-10-12T23:49:22.333Z,100039.19
2022-10-12T23:52:12.753Z,100041.03
2022-10-12T23:55:00.363Z,100032.63
2022-10-12T23:57:47.767Z,100041.50
